Time;durP1;ratioP1;P1;durP2;ratioP2;P2;SDS_P1;SDS_P2;PMS_P1;PMS_P2;Temp;Humidity;BMP_temperature;BMP_pressure;BME280_temperature;BME280_humidity;BME280_pressure;Samples;Min_cycle;Max_cycle;Signal;HPM_P1;HPM_P2
2023/05/31 00:01:28;;;;;;;8.70;3.97;;;11.10;99.90;;;;;;5013444;28;20038;-71
2023/05/31 00:03:53;;;;;;;7.60;3.72;;;11.20;99.90;;;;;;5015399;28;20120;-71
2023/05/31 00:06:19;;;;;;;5.90;3.40;;;11.20;99.90;;;;;;5014143;28;20056;-70
2023/05/31 00:08:45;;;;;;;12.13;4.22;;;11.20;99.90;;;;;;5013919;28;20592;-71
2023/05/31 00:11:10;;;;;;;11.07;4.90;;;11.20;99.90;;;;;;5015212;28;20112;-71
2023/05/31 00:13:38;;;;;;;12.43;5.93;;;11.20;99.90;;;;;;5014908;28;20560;-71
2023/05/31 00:16:05;;;;;;;12.95;6.07;;;11.20;99.90;;;;;;5015221;28;20498;-70
2023/05/31 00:18:31;;;;;;;12.95;5.15;;;11.10;99.90;;;;;;5015073;28;20053;-71
2023/05/31 00:20:56;;;;;;;8.82;4.55;;;11.10;99.90;;;;;;5015119;28;20042;-70
2023/05/31 00:23:22;;;;;;;12.00;4.47;;;11.10;99.90;;;;;;5014981;28;20045;-71
2023/05/31 00:25:47;;;;;;;8.98;3.70;;;11.10;99.90;;;;;;5013696;28;20041;-70
2023/05/31 00:28:13;;;;;;;9.52;3.95;;;11.10;99.90;;;;;;5014535;28;20132;-71
2023/05/31 00:30:38;;;;;;;10.32;4.63;;;11.20;99.90;;;;;;5013551;28;20144;-70
2023/05/31 00:33:04;;;;;;;7.78;3.90;;;11.20;99.90;;;;;;5013677;28;20034;-70
2023/05/31 00:35:30;;;;;;;8.93;4.50;;;11.10;99.90;;;;;;5014722;28;20490;-70
2023/05/31 00:37:55;;;;;;;6.60;3.72;;;11.10;99.90;;;;;;5013329;28;20038;-69
2023/05/31 00:40:21;;;;;;;11.73;4.30;;;11.20;99.90;;;;;;5014626;28;20533;-69
2023/05/31 00:42:47;;;;;;;8.50;4.03;;;11.20;99.90;;;;;;5014590;28;20116;-69
2023/05/31 00:45:12;;;;;;;7.60;4.20;;;11.10;99.90;;;;;;5014730;28;20514;-72
2023/05/31 00:47:40;;;;;;;7.03;4.30;;;11.10;99.90;;;;;;5013149;28;20038;-72
2023/05/31 00:50:07;;;;;;;9.35;5.13;;;11.10;99.90;;;;;;5014318;28;20041;-71
2023/05/31 00:52:33;;;;;;;8.95;5.25;;;11.10;99.90;;;;;;5014534;28;20065;-72
2023/05/31 00:55:00;;;;;;;10.07;4.93;;;11.10;99.90;;;;;;5014333;28;20117;-72
2023/05/31 00:57:26;;;;;;;7.93;4.40;;;11.10;99.90;;;;;;5014175;28;20060;-71
2023/05/31 00:59:52;;;;;;;11.30;5.32;;;11.10;99.90;;;;;;5014137;28;20548;-72
2023/05/31 01:02:18;;;;;;;10.30;5.10;;;11.10;99.90;;;;;;5014412;28;20077;-72
2023/05/31 01:04:44;;;;;;;12.57;4.95;;;11.10;99.90;;;;;;5014194;28;20092;-72
2023/05/31 01:07:10;;;;;;;9.75;4.70;;;11.00;99.90;;;;;;5014113;28;20038;-72
2023/05/31 01:09:37;;;;;;;12.27;5.60;;;11.00;99.90;;;;;;5013971;28;20042;-72
2023/05/31 01:12:21;;;;;;;7.90;4.32;;;11.00;99.90;;;;;;5012575;28;20509;-72
2023/05/31 01:15:00;;;;;;;9.50;4.40;;;11.00;99.90;;;;;;5012663;28;20038;-72
2023/05/31 01:17:46;;;;;;;10.02;3.58;;;10.90;99.90;;;;;;5012682;28;20041;-71
2023/05/31 01:20:15;;;;;;;7.93;3.70;;;11.00;99.90;;;;;;4996261;28;20041;-72
2023/05/31 01:22:50;;;;;;;8.38;4.70;;;10.90;99.90;;;;;;5012607;28;20030;-72
2023/05/31 01:25:28;;;;;;;8.23;4.70;;;10.90;99.90;;;;;;5013883;28;20042;-72
2023/05/31 01:27:55;;;;;;;11.85;4.13;;;10.90;99.90;;;;;;5012553;28;20440;-72
2023/05/31 01:30:21;;;;;;;8.77;4.43;;;11.00;99.90;;;;;;5013697;28;20037;-72
2023/05/31 01:32:48;;;;;;;8.07;4.38;;;10.90;99.90;;;;;;5013953;28;20040;-72
2023/05/31 01:35:14;;;;;;;9.77;4.32;;;10.90;99.90;;;;;;5013710;28;20076;-72
2023/05/31 01:37:40;;;;;;;7.82;3.85;;;10.90;99.90;;;;;;5013381;28;20065;-71
2023/05/31 01:40:07;;;;;;;8.68;4.00;;;10.80;99.90;;;;;;5013367;28;20120;-70
2023/05/31 01:42:34;;;;;;;9.82;4.70;;;10.90;99.90;;;;;;5013422;28;20517;-69
2023/05/31 01:45:00;;;;;;;12.80;5.65;;;10.80;99.90;;;;;;5013335;28;20520;-71
2023/05/31 01:47:26;;;;;;;9.63;4.85;;;10.90;99.90;;;;;;5012033;28;20121;-70
2023/05/31 01:49:52;;;;;;;6.85;4.20;;;10.80;99.90;;;;;;5013138;28;20572;-70
2023/05/31 01:52:20;;;;;;;10.48;4.07;;;10.70;99.90;;;;;;5013276;28;20438;-70
2023/05/31 01:54:46;;;;;;;7.72;4.43;;;10.80;99.90;;;;;;5013251;28;20065;-70
2023/05/31 01:57:13;;;;;;;7.82;4.28;;;10.70;99.90;;;;;;5013074;28;20038;-70
2023/05/31 01:59:40;;;;;;;13.10;4.57;;;10.70;99.90;;;;;;5012060;28;20053;-70
2023/05/31 02:02:06;;;;;;;9.70;4.63;;;10.70;99.90;;;;;;5013104;28;20522;-70
2023/05/31 02:04:32;;;;;;;15.43;5.85;;;10.60;99.90;;;;;;5011923;28;20145;-70
2023/05/31 02:06:57;;;;;;;12.27;4.22;;;10.70;99.90;;;;;;5013061;28;20041;-70
2023/05/31 02:09:23;;;;;;;11.40;5.85;;;10.60;99.90;;;;;;5012757;28;20042;-70
2023/05/31 02:11:49;;;;;;;12.07;5.80;;;10.70;99.90;;;;;;5013000;28;20042;-69
2023/05/31 02:14:17;;;;;;;14.23;6.10;;;10.60;99.90;;;;;;5012722;28;20034;-70
2023/05/31 02:16:43;;;;;;;12.60;5.82;;;10.60;99.90;;;;;;5012754;28;20638;-70
2023/05/31 02:19:08;;;;;;;12.68;5.72;;;10.60;99.90;;;;;;5012867;28;20069;-70
2023/05/31 02:21:35;;;;;;;13.25;5.43;;;10.60;99.90;;;;;;5012929;28;20457;-70
2023/05/31 02:24:01;;;;;;;10.55;5.45;;;10.60;99.90;;;;;;5012216;28;20137;-69
2023/05/31 02:26:26;;;;;;;11.02;5.80;;;10.60;99.90;;;;;;5012736;28;20192;-70
2023/05/31 02:28:52;;;;;;;9.70;5.63;;;10.60;99.90;;;;;;5012411;28;20049;-69
2023/05/31 02:31:17;;;;;;;11.02;5.68;;;10.60;99.90;;;;;;5012826;28;20125;-69
2023/05/31 02:33:43;;;;;;;11.80;5.72;;;10.50;99.90;;;;;;5012446;28;20505;-69
2023/05/31 02:36:09;;;;;;;13.07;6.05;;;10.50;99.90;;;;;;5011487;28;20387;-70
2023/05/31 02:38:35;;;;;;;11.23;6.03;;;10.50;99.90;;;;;;5012319;28;20490;-70
2023/05/31 02:41:01;;;;;;;11.18;5.85;;;10.60;99.90;;;;;;5012516;28;20038;-70
2023/05/31 02:43:26;;;;;;;12.18;6.10;;;10.50;99.90;;;;;;5012343;28;20502;-70
2023/05/31 02:45:52;;;;;;;12.65;6.35;;;10.50;99.90;;;;;;5012232;28;20108;-72
2023/05/31 02:48:17;;;;;;;13.05;5.72;;;10.40;99.90;;;;;;5012282;28;20045;-73
2023/05/31 02:50:43;;;;;;;12.60;7.55;;;10.40;99.90;;;;;;5012528;28;20113;-72
2023/05/31 02:53:09;;;;;;;12.13;5.75;;;10.40;99.90;;;;;;5012117;28;20080;-72
2023/05/31 02:55:37;;;;;;;10.95;5.28;;;10.40;99.90;;;;;;5012288;28;20041;-72
2023/05/31 02:58:03;;;;;;;10.48;5.40;;;10.40;99.90;;;;;;5011970;28;20069;-72
2023/05/31 03:00:28;;;;;;;9.05;4.95;;;10.40;99.90;;;;;;5012051;28;20037;-72
2023/05/31 03:02:54;;;;;;;14.20;5.50;;;10.40;99.90;;;;;;5010813;28;20037;-70
2023/05/31 03:05:20;;;;;;;11.77;5.50;;;10.40;99.90;;;;;;5012192;28;20164;-70
2023/05/31 03:07:46;;;;;;;13.45;5.72;;;10.40;99.90;;;;;;5010764;28;20410;-71
2023/05/31 03:10:12;;;;;;;14.13;5.40;;;10.40;99.90;;;;;;5011771;28;20052;-69
2023/05/31 03:12:38;;;;;;;13.35;6.65;;;10.40;99.90;;;;;;5010794;28;20088;-69
2023/05/31 03:15:04;;;;;;;15.05;5.55;;;10.20;99.90;;;;;;5011880;28;20038;-69
2023/05/31 03:17:30;;;;;;;11.57;5.35;;;10.20;99.90;;;;;;5012061;28;20044;-69
2023/05/31 03:19:56;;;;;;;15.02;5.95;;;10.20;99.90;;;;;;5011957;28;20052;-70
2023/05/31 03:22:23;;;;;;;11.68;5.90;;;10.30;99.90;;;;;;5010647;28;20049;-69
2023/05/31 03:24:49;;;;;;;16.05;6.28;;;10.20;99.90;;;;;;5011555;28;20052;-69
2023/05/31 03:27:14;;;;;;;12.13;5.88;;;10.30;99.90;;;;;;5011578;28;20038;-69
2023/05/31 03:29:42;;;;;;;15.90;5.85;;;10.30;99.90;;;;;;5011549;28;20075;-70
2023/05/31 03:32:07;;;;;;;17.23;5.95;;;10.30;99.90;;;;;;5011877;28;20034;-70
2023/05/31 03:34:34;;;;;;;14.48;7.40;;;10.20;99.90;;;;;;5011698;28;20041;-70
2023/05/31 03:37:00;;;;;;;14.57;6.28;;;10.20;99.90;;;;;;5014431;28;20045;-70
2023/05/31 03:39:26;;;;;;;18.75;7.28;;;10.30;99.90;;;;;;5015712;28;20049;-70
2023/05/31 03:41:51;;;;;;;12.55;5.90;;;10.30;99.90;;;;;;5015670;28;20238;-70
2023/05/31 03:44:17;;;;;;;19.83;6.53;;;10.30;99.90;;;;;;5014236;28;20057;-70
2023/05/31 03:46:42;;;;;;;13.48;6.53;;;10.30;99.90;;;;;;5015491;28;20037;-69
2023/05/31 03:49:08;;;;;;;14.48;7.38;;;10.20;99.90;;;;;;5015564;28;20051;-70
2023/05/31 03:51:33;;;;;;;18.77;6.60;;;10.30;99.90;;;;;;5014594;28;20565;-70
2023/05/31 03:53:59;;;;;;;19.40;7.60;;;10.20;99.90;;;;;;5015263;28;20490;-70
2023/05/31 03:56:25;;;;;;;16.30;7.25;;;10.30;99.90;;;;;;5015271;28;20501;-69
2023/05/31 03:58:50;;;;;;;16.33;7.05;;;10.30;99.90;;;;;;5014234;28;20409;-70
2023/05/31 04:01:17;;;;;;;13.60;7.28;;;10.30;99.90;;;;;;5015385;28;20059;-70
2023/05/31 04:03:43;;;;;;;16.45;6.90;;;10.40;99.90;;;;;;5015195;28;20549;-69
2023/05/31 04:06:09;;;;;;;20.33;6.97;;;10.40;99.90;;;;;;5015282;28;20160;-70
2023/05/31 04:08:35;;;;;;;17.70;7.43;;;10.40;99.90;;;;;;5014194;28;20474;-69
2023/05/31 04:11:01;;;;;;;18.65;7.30;;;10.40;99.90;;;;;;5015151;28;20564;-70
2023/05/31 04:13:26;;;;;;;16.05;7.10;;;10.40;99.90;;;;;;5013609;28;20038;-69
2023/05/31 04:15:53;;;;;;;17.38;7.50;;;10.50;99.90;;;;;;5015033;28;20583;-70
2023/05/31 04:18:18;;;;;;;19.77;7.40;;;10.50;99.90;;;;;;5014771;28;20446;-70
2023/05/31 04:20:44;;;;;;;17.20;7.57;;;10.60;99.90;;;;;;5013571;28;20102;-70
2023/05/31 04:23:09;;;;;;;19.08;7.63;;;10.60;99.90;;;;;;5014533;28;20050;-70
2023/05/31 04:25:35;;;;;;;20.52;7.15;;;10.70;99.90;;;;;;5014852;28;20041;-70
2023/05/31 04:28:01;;;;;;;14.43;7.18;;;10.70;99.90;;;;;;5013619;28;20486;-70
2023/05/31 04:30:27;;;;;;;16.30;6.57;;;10.80;99.90;;;;;;5014774;28;20701;-70
2023/05/31 04:32:57;;;;;;;12.68;6.38;;;10.70;99.90;;;;;;5014891;28;20121;-71
2023/05/31 04:35:23;;;;;;;15.70;7.72;;;10.80;99.90;;;;;;5014525;28;20540;-70
2023/05/31 04:37:52;;;;;;;19.13;7.50;;;10.90;99.90;;;;;;5014633;28;20034;-71
2023/05/31 04:40:20;;;;;;;17.25;7.50;;;10.90;99.90;;;;;;5014471;28;20048;-71
2023/05/31 04:42:45;;;;;;;19.08;6.53;;;11.00;99.90;;;;;;5014825;28;20054;-70
2023/05/31 04:45:11;;;;;;;16.98;7.53;;;11.10;99.90;;;;;;5014533;28;20401;-71
2023/05/31 04:47:37;;;;;;;16.25;6.88;;;11.20;99.90;;;;;;5014025;28;20138;-71
2023/05/31 04:50:03;;;;;;;10.70;6.32;;;11.40;99.90;;;;;;5014392;28;20054;-71
2023/05/31 04:52:30;;;;;;;15.75;7.38;;;11.60;99.90;;;;;;5013219;28;20116;-71
2023/05/31 04:54:58;;;;;;;13.38;5.82;;;11.80;99.90;;;;;;5014090;28;20037;-71
2023/05/31 04:57:24;;;;;;;16.48;6.97;;;12.00;99.90;;;;;;5014374;28;20038;-71
2023/05/31 04:59:50;;;;;;;15.10;7.00;;;12.30;99.90;;;;;;5013073;28;20132;-70
2023/05/31 05:02:18;;;;;;;13.25;5.82;;;12.40;99.90;;;;;;5013691;28;20537;-71
2023/05/31 05:04:43;;;;;;;10.18;5.75;;;12.60;99.90;;;;;;4996525;28;20041;-71
2023/05/31 05:07:09;;;;;;;10.20;5.85;;;13.00;99.90;;;;;;5014057;28;20041;-72
2023/05/31 05:09:35;;;;;;;15.60;6.75;;;13.30;99.90;;;;;;5012546;28;20484;-72
2023/05/31 05:12:02;;;;;;;11.32;5.93;;;13.50;99.90;;;;;;5013111;28;20371;-71
2023/05/31 05:14:29;;;;;;;14.30;5.97;;;13.80;99.90;;;;;;5013774;28;20501;-71
2023/05/31 05:16:54;;;;;;;12.70;5.57;;;14.10;99.90;;;;;;5014000;28;20030;-71
2023/05/31 05:19:20;;;;;;;9.98;5.70;;;14.40;99.90;;;;;;5013770;28;20095;-71
2023/05/31 05:21:46;;;;;;;11.40;6.07;;;14.50;99.90;;;;;;5013696;28;20464;-71
2023/05/31 05:24:12;;;;;;;10.50;5.63;;;14.90;99.90;;;;;;5012785;28;20238;-71
2023/05/31 05:26:37;;;;;;;13.13;5.40;;;15.10;99.90;;;;;;5012511;28;20081;-71
2023/05/31 05:29:03;;;;;;;12.95;5.40;;;15.30;99.90;;;;;;5013718;28;20034;-71
2023/05/31 05:31:28;;;;;;;14.70;6.38;;;15.60;99.90;;;;;;5013795;28;20493;-72
2023/05/31 05:33:54;;;;;;;13.40;5.20;;;15.70;99.90;;;;;;5012324;28;20121;-72
2023/05/31 05:36:19;;;;;;;12.43;5.05;;;15.70;99.90;;;;;;5013500;28;20045;-72
2023/05/31 05:38:45;;;;;;;10.52;4.95;;;16.10;99.90;;;;;;5012072;28;20053;-72
2023/05/31 05:41:12;;;;;;;10.20;5.55;;;16.40;99.90;;;;;;5013597;28;20044;-72
2023/05/31 05:43:40;;;;;;;9.60;4.95;;;16.40;99.90;;;;;;5013383;28;20117;-72
2023/05/31 05:46:06;;;;;;;10.07;5.47;;;16.60;99.90;;;;;;5011980;28;20498;-70
2023/05/31 05:48:32;;;;;;;12.90;6.10;;;17.00;99.90;;;;;;5013204;28;20108;-70
2023/05/31 05:50:58;;;;;;;10.93;5.57;;;17.10;99.90;;;;;;5013009;28;20432;-70
2023/05/31 05:53:23;;;;;;;12.38;6.20;;;17.40;99.90;;;;;;5011748;28;20112;-69
2023/05/31 05:55:51;;;;;;;10.30;5.00;;;17.30;99.90;;;;;;5011736;28;20073;-70
2023/05/31 05:58:16;;;;;;;13.23;5.55;;;17.30;99.90;;;;;;5011155;28;20466;-70
2023/05/31 06:00:44;;;;;;;10.43;5.03;;;17.50;99.90;;;;;;5011911;28;20081;-70
2023/05/31 06:03:10;;;;;;;9.65;5.20;;;17.20;99.90;;;;;;5012349;28;20505;-71
2023/05/31 06:05:36;;;;;;;11.68;5.10;;;17.50;99.90;;;;;;5011617;28;20426;-72
2023/05/31 06:08:02;;;;;;;11.27;4.90;;;17.70;99.90;;;;;;5011378;28;20049;-72
2023/05/31 06:10:28;;;;;;;11.77;5.38;;;18.00;99.90;;;;;;4995357;28;20047;-71
2023/05/31 06:12:56;;;;;;;11.70;5.10;;;18.10;99.90;;;;;;5011652;28;20046;-70
2023/05/31 06:15:22;;;;;;;9.98;4.07;;;18.20;99.90;;;;;;5012340;28;20053;-71
2023/05/31 06:17:48;;;;;;;9.65;4.78;;;18.40;99.90;;;;;;5011308;28;20045;-72
2023/05/31 06:20:15;;;;;;;8.68;4.18;;;18.30;99.90;;;;;;5012578;28;20065;-71
2023/05/31 06:22:41;;;;;;;10.00;4.60;;;18.30;99.90;;;;;;4995098;28;20235;-71
2023/05/31 06:25:07;;;;;;;13.55;4.90;;;18.30;99.90;;;;;;5011484;28;20592;-71
2023/05/31 06:27:33;;;;;;;10.95;5.05;;;18.40;99.90;;;;;;5012279;28;20497;-71
2023/05/31 06:30:00;;;;;;;8.98;4.10;;;18.70;99.90;;;;;;5011167;28;20042;-70
2023/05/31 06:32:30;;;;;;;10.43;3.92;;;18.80;99.90;;;;;;5012343;28;20045;-70
2023/05/31 06:34:56;;;;;;;9.18;4.15;;;19.00;99.90;;;;;;5011108;28;20049;-70
2023/05/31 06:37:22;;;;;;;10.25;3.38;;;18.90;99.90;;;;;;5012555;28;20069;-70
2023/05/31 06:39:49;;;;;;;9.60;3.08;;;19.40;99.90;;;;;;5012434;28;20080;-71
2023/05/31 06:42:15;;;;;;;6.80;2.97;;;19.70;99.90;;;;;;5012459;28;20042;-70
2023/05/31 06:44:42;;;;;;;8.23;3.33;;;19.90;99.90;;;;;;5012224;28;20052;-71
2023/05/31 06:47:07;;;;;;;6.15;2.88;;;19.90;99.90;;;;;;5012204;28;20545;-70
2023/05/31 06:49:33;;;;;;;9.23;3.65;;;19.90;99.90;;;;;;5010851;28;20088;-71
2023/05/31 06:51:59;;;;;;;7.63;3.03;;;20.00;99.90;;;;;;4995011;28;20493;-71
2023/05/31 06:54:26;;;;;;;6.68;2.80;;;20.10;99.90;;;;;;5012170;28;20042;-71
2023/05/31 06:56:52;;;;;;;6.57;3.28;;;20.00;99.90;;;;;;5011958;28;20532;-71
2023/05/31 06:59:18;;;;;;;9.35;2.58;;;20.10;99.90;;;;;;5012036;28;20077;-70
2023/05/31 07:01:43;;;;;;;7.97;2.58;;;20.10;99.90;;;;;;5010791;28;20045;-71
2023/05/31 07:04:09;;;;;;;4.43;2.08;;;20.20;99.90;;;;;;5012282;28;20071;-71
2023/05/31 07:06:37;;;;;;;6.80;2.08;;;20.10;99.90;;;;;;5012105;28;20088;-70
2023/05/31 07:09:04;;;;;;;6.20;1.80;;;20.60;99.90;;;;;;5012047;28;20053;-72
2023/05/31 07:11:29;;;;;;;7.38;1.88;;;20.80;99.90;;;;;;5011775;28;20033;-71
2023/05/31 07:13:59;;;;;;;5.38;1.70;;;21.20;99.90;;;;;;5011668;28;20172;-71
2023/05/31 07:16:25;;;;;;;2.97;1.63;;;21.30;99.90;;;;;;5011822;28;20060;-71
2023/05/31 07:18:50;;;;;;;3.88;1.50;;;21.40;99.90;;;;;;5011427;28;20081;-71
2023/05/31 07:21:16;;;;;;;3.88;1.50;;;21.50;99.90;;;;;;5010647;28;20038;-71
2023/05/31 07:23:41;;;;;;;4.95;1.58;;;21.30;99.30;;;;;;5011903;28;20038;-71
2023/05/31 07:26:07;;;;;;;5.30;2.35;;;21.40;98.40;;;;;;5011751;28;20044;-71
2023/05/31 07:28:33;;;;;;;5.90;1.63;;;21.50;97.70;;;;;;5011596;28;20041;-70
2023/05/31 07:30:58;;;;;;;4.93;1.95;;;21.50;97.50;;;;;;5011761;28;20038;-71
2023/05/31 07:33:24;;;;;;;7.88;2.20;;;21.50;97.60;;;;;;5011571;28;20038;-71
2023/05/31 07:35:50;;;;;;;6.63;1.67;;;21.70;97.50;;;;;;5011733;28;20040;-71
2023/05/31 07:38:15;;;;;;;6.07;1.90;;;21.60;96.60;;;;;;5011678;28;20485;-71
2023/05/31 07:40:41;;;;;;;4.53;2.03;;;21.70;97.00;;;;;;5010480;28;20038;-71
2023/05/31 07:43:07;;;;;;;3.97;1.60;;;21.90;96.60;;;;;;5011622;28;20081;-71
2023/05/31 07:45:33;;;;;;;5.70;1.80;;;21.70;97.00;;;;;;5011600;28;20577;-71
2023/05/31 07:47:58;;;;;;;4.43;1.88;;;21.90;96.90;;;;;;5011316;28;20080;-71
2023/05/31 07:50:25;;;;;;;4.65;2.20;;;21.90;96.60;;;;;;5011636;28;20092;-72
2023/05/31 07:52:51;;;;;;;5.68;2.50;;;22.20;96.40;;;;;;5010435;28;20045;-71
2023/05/31 07:55:17;;;;;;;3.88;1.77;;;22.30;96.70;;;;;;5011438;28;20042;-71
2023/05/31 07:57:43;;;;;;;4.65;2.10;;;22.60;96.50;;;;;;5011465;28;20041;-71
2023/05/31 08:00:13;;;;;;;2.60;1.20;;;22.50;95.30;;;;;;5011218;28;20125;-71
2023/05/31 08:02:39;;;;;;;4.03;1.67;;;22.60;94.70;;;;;;5011648;28;20037;-71
2023/05/31 08:05:05;;;;;;;3.78;1.73;;;22.70;95.00;;;;;;5009620;28;20042;-71
2023/05/31 08:07:31;;;;;;;4.47;1.15;;;22.60;94.30;;;;;;5010642;28;20030;-69
2023/05/31 08:09:56;;;;;;;3.88;1.23;;;22.90;94.70;;;;;;5010875;28;20691;-70
2023/05/31 08:12:22;;;;;;;4.35;1.80;;;22.70;94.30;;;;;;5010713;28;20038;-70
2023/05/31 08:14:47;;;;;;;6.97;1.95;;;22.80;94.00;;;;;;5010621;28;20493;-71
2023/05/31 08:17:13;;;;;;;6.85;2.20;;;23.10;93.80;;;;;;5010722;28;20510;-70
2023/05/31 08:19:38;;;;;;;5.28;1.95;;;23.20;93.30;;;;;;5010792;28;20120;-71
2023/05/31 08:22:04;;;;;;;6.60;2.17;;;23.20;92.50;;;;;;5011813;28;20034;-70
2023/05/31 08:24:30;;;;;;;4.50;1.90;;;23.20;92.40;;;;;;5014688;28;20064;-70
2023/05/31 08:26:56;;;;;;;6.65;2.15;;;23.10;92.60;;;;;;5014729;28;20411;-70
2023/05/31 08:29:22;;;;;;;5.60;1.83;;;23.20;92.40;;;;;;5029811;28;20045;-70
2023/05/31 08:31:48;;;;;;;6.65;2.13;;;23.00;92.70;;;;;;5014838;28;20038;-70
2023/05/31 08:34:13;;;;;;;10.65;2.00;;;22.50;92.80;;;;;;5014722;28;20040;-69
2023/05/31 08:36:40;;;;;;;6.22;2.17;;;22.80;92.20;;;;;;5014666;28;20034;-69
2023/05/31 08:39:07;;;;;;;5.78;2.08;;;23.20;92.40;;;;;;5014126;28;20034;-70
2023/05/31 08:41:42;;;;;;;5.65;2.88;;;23.20;91.50;;;;;;5013959;28;20107;-69
2023/05/31 08:44:07;;;;;;;6.13;2.58;;;23.00;90.90;;;;;;5011690;28;20068;-70
2023/05/31 08:46:34;;;;;;;7.45;2.35;;;23.20;90.90;;;;;;5014568;28;20509;-71
2023/05/31 08:49:10;;;;;;;2.90;1.65;;;23.60;90.30;;;;;;5008449;28;20073;-69
2023/05/31 08:51:37;;;;;;;5.80;2.25;;;23.70;90.30;;;;;;5014246;28;20049;-69
2023/05/31 08:54:05;;;;;;;3.78;1.58;;;23.30;91.40;;;;;;5013609;28;20038;-70
2023/05/31 08:56:31;;;;;;;6.45;2.70;;;23.60;91.20;;;;;;5013887;28;20048;-70
2023/05/31 08:58:57;;;;;;;5.72;2.58;;;23.30;91.20;;;;;;5014186;28;20502;-69
2023/05/31 09:01:25;;;;;;;6.03;2.40;;;22.90;91.70;;;;;;5012599;28;20046;-69
2023/05/31 09:03:53;;;;;;;6.03;2.00;;;23.20;90.80;;;;;;5013692;28;20091;-70
2023/05/31 09:06:18;;;;;;;8.27;2.83;;;22.80;90.80;;;;;;5013617;28;20045;-69
2023/05/31 09:08:44;;;;;;;8.80;2.63;;;22.60;91.80;;;;;;5012345;28;20042;-69
2023/05/31 09:11:12;;;;;;;6.93;2.58;;;22.50;91.30;;;;;;5014009;28;20413;-69
2023/05/31 09:13:37;;;;;;;7.68;3.05;;;22.70;91.10;;;;;;5013808;28;20121;-71
2023/05/31 09:16:03;;;;;;;7.20;2.35;;;22.20;90.80;;;;;;5013827;28;20080;-70
2023/05/31 09:18:36;;;;;;;7.82;2.90;;;22.70;90.20;;;;;;5013688;28;20034;-70
2023/05/31 09:21:09;;;;;;;5.65;2.30;;;22.40;87.00;;;;;;5014091;28;20072;-70
2023/05/31 09:23:35;;;;;;;8.57;2.92;;;22.70;90.50;;;;;;5013330;28;20047;-71
2023/05/31 09:26:01;;;;;;;9.18;2.97;;;22.60;90.80;;;;;;5013231;28;20092;-71
2023/05/31 09:28:27;;;;;;;7.18;2.92;;;22.90;89.30;;;;;;5012058;28;20049;-72
2023/05/31 09:31:07;;;;;;;6.32;3.22;;;22.50;90.00;;;;;;5012702;28;20068;-72
2023/05/31 09:33:40;;;;;;;9.23;2.95;;;22.30;91.10;;;;;;5013453;28;20050;-72
2023/05/31 09:36:06;;;;;;;7.78;3.08;;;22.30;91.10;;;;;;5013413;28;20457;-72
2023/05/31 09:38:36;;;;;;;8.57;3.10;;;22.20;92.40;;;;;;5013658;28;20042;-73
2023/05/31 09:41:32;;;;;;;7.57;3.42;;;21.80;92.90;;;;;;4996081;28;20040;-73
2023/05/31 09:43:58;;;;;;;7.50;3.08;;;21.10;93.20;;;;;;4999661;28;20104;-71
2023/05/31 09:46:24;;;;;;;7.43;4.13;;;21.40;94.00;;;;;;5011817;28;20045;-72
2023/05/31 09:49:04;;;;;;;10.70;4.00;;;21.30;94.30;;;;;;5013355;28;20038;-73
2023/05/31 09:51:34;;;;;;;8.23;3.38;;;20.80;93.60;;;;;;5013282;28;20494;-71
2023/05/31 09:54:10;;;;;;;10.57;4.03;;;20.90;94.60;;;;;;5012391;28;20034;-71
2023/05/31 09:56:40;;;;;;;11.13;4.57;;;21.10;94.60;;;;;;5013223;28;20045;-71
2023/05/31 09:59:07;;;;;;;5.68;3.42;;;20.70;94.50;;;;;;5011843;28;20121;-71
2023/05/31 10:01:34;;;;;;;6.13;3.75;;;20.90;95.20;;;;;;5013171;28;20046;-70
2023/05/31 10:04:01;;;;;;;11.18;4.32;;;20.80;94.90;;;;;;5013169;28;20092;-71
2023/05/31 10:06:27;;;;;;;13.50;4.80;;;20.80;94.60;;;;;;5012999;28;20121;-70
2023/05/31 10:08:52;;;;;;;9.55;4.32;;;20.80;95.20;;;;;;5012847;28;20609;-70
2023/05/31 10:11:25;;;;;;;9.57;4.93;;;20.50;95.70;;;;;;5013032;28;20073;-71
2023/05/31 10:13:56;;;;;;;8.98;4.75;;;20.30;96.10;;;;;;5012853;28;20076;-71
2023/05/31 10:16:23;;;;;;;10.52;4.90;;;20.20;96.00;;;;;;5012094;28;20394;-70
2023/05/31 10:18:50;;;;;;;8.07;4.03;;;20.10;96.50;;;;;;5012980;28;20049;-71
2023/05/31 10:21:22;;;;;;;11.57;4.80;;;19.90;97.00;;;;;;5012896;28;20532;-72
2023/05/31 10:24:06;;;;;;;11.07;4.18;;;19.90;97.10;;;;;;5012733;28;20061;-74
2023/05/31 10:26:44;;;;;;;13.25;4.22;;;20.10;97.00;;;;;;4995470;28;20080;-73
2023/05/31 10:29:21;;;;;;;5.72;4.03;;;20.00;97.50;;;;;;5027871;28;20387;-72
2023/05/31 10:31:54;;;;;;;6.10;4.35;;;20.00;97.60;;;;;;4995200;28;20054;-73
2023/05/31 10:34:24;;;;;;;7.93;4.37;;;20.10;97.30;;;;;;5012404;28;20077;-73
2023/05/31 10:36:51;;;;;;;9.90;4.50;;;20.20;96.80;;;;;;5011906;28;20275;-72
2023/05/31 10:39:26;;;;;;;7.05;4.53;;;19.70;96.80;;;;;;5012566;28;20436;-72
2023/05/31 10:42:01;;;;;;;9.77;4.55;;;20.00;97.10;;;;;;5012563;28;20042;-72
2023/05/31 10:44:36;;;;;;;7.28;3.95;;;20.10;97.30;;;;;;5010544;28;20056;-74
2023/05/31 10:47:09;;;;;;;8.77;4.22;;;20.20;96.80;;;;;;5011085;28;20152;-72
2023/05/31 10:49:36;;;;;;;7.40;4.07;;;20.20;96.10;;;;;;5011411;28;20444;-73
2023/05/31 10:52:06;;;;;;;7.68;4.45;;;19.90;97.00;;;;;;5010820;28;20117;-73
2023/05/31 10:54:32;;;;;;;11.88;4.88;;;20.00;96.70;;;;;;5011126;28;20060;-73
2023/05/31 10:56:59;;;;;;;10.95;4.13;;;19.80;97.50;;;;;;5012143;28;20034;-73
2023/05/31 10:59:27;;;;;;;7.47;4.30;;;20.00;97.90;;;;;;5011886;28;20042;-73
2023/05/31 11:01:54;;;;;;;9.65;4.22;;;20.10;96.80;;;;;;5012185;28;20038;-73
2023/05/31 11:04:24;;;;;;;12.98;4.75;;;20.10;96.80;;;;;;5010403;28;20052;-74
2023/05/31 11:06:54;;;;;;;7.95;4.28;;;19.80;96.70;;;;;;5007640;28;20125;-72
2023/05/31 11:09:21;;;;;;;8.38;4.28;;;19.90;96.40;;;;;;5011543;28;20452;-73
2023/05/31 11:11:49;;;;;;;10.73;4.50;;;20.00;96.50;;;;;;5011374;28;20038;-72
2023/05/31 11:14:28;;;;;;;9.80;4.07;;;19.90;97.00;;;;;;5038692;23;20041;-78
2023/05/31 11:16:53;;;;;;;7.95;4.10;;;19.90;96.80;;;;;;5029421;28;20041;-79
2023/05/31 11:19:36;;;;;;;11.35;3.83;;;20.00;96.60;;;;;;5012460;28;20049;-79
2023/05/31 11:22:16;;;;;;;5.47;3.60;;;19.80;96.30;;;;;;5030246;28;20077;-76
2023/05/31 11:24:53;;;;;;;6.68;3.75;;;19.70;96.50;;;;;;5040477;28;20049;-77
2023/05/31 11:27:21;;;;;;;8.65;3.95;;;19.80;96.90;;;;;;5049161;28;20045;-77
2023/05/31 11:29:53;;;;;;;15.85;3.58;;;19.70;97.20;;;;;;5050571;28;20048;-77
2023/05/31 11:32:45;;;;;;;9.93;4.43;;;19.80;97.50;;;;;;5050216;28;20041;-79
2023/05/31 11:35:16;;;;;;;6.30;3.28;;;19.50;97.50;;;;;;5033742;28;20420;-78
2023/05/31 11:37:43;;;;;;;10.25;2.85;;;19.50;97.30;;;;;;5050000;28;20068;-77
2023/05/31 11:40:14;;;;;;;8.25;3.45;;;19.60;97.50;;;;;;5033641;28;20041;-77
2023/05/31 11:42:42;;;;;;;11.20;3.63;;;19.40;97.70;;;;;;5050296;28;20104;-77
2023/05/31 11:45:09;;;;;;;11.18;3.20;;;19.50;97.50;;;;;;5049973;28;20049;-76
2023/05/31 11:47:38;;;;;;;8.45;2.83;;;19.30;97.60;;;;;;5033354;28;20079;-79
2023/05/31 11:50:04;;;;;;;7.22;3.20;;;19.30;98.50;;;;;;5049661;28;20052;-77
2023/05/31 11:52:30;;;;;;;9.48;3.30;;;19.40;98.10;;;;;;5033591;28;20083;-78
2023/05/31 11:55:05;;;;;;;9.50;3.45;;;19.20;98.20;;;;;;5034315;28;20037;-79
2023/05/31 11:57:39;;;;;;;9.15;3.38;;;19.40;97.70;;;;;;5052199;28;20126;-78
2023/05/31 12:00:10;;;;;;;6.55;3.13;;;19.40;97.80;;;;;;5054134;28;20044;-77
2023/05/31 12:02:36;;;;;;;9.23;3.53;;;19.30;97.80;;;;;;5038612;28;20036;-77
2023/05/31 12:05:03;;;;;;;13.35;3.70;;;19.20;98.00;;;;;;5043922;28;20134;-76
2023/05/31 12:07:29;;;;;;;8.95;3.22;;;19.20;98.00;;;;;;5049214;28;20048;-74
2023/05/31 12:09:55;;;;;;;9.65;3.22;;;19.20;98.10;;;;;;5054877;28;20041;-75
2023/05/31 12:12:20;;;;;;;19.15;3.53;;;19.00;98.40;;;;;;5037098;28;20037;-74
2023/05/31 12:14:54;;;;;;;9.63;4.40;;;19.20;98.30;;;;;;5053655;28;20037;-75
2023/05/31 12:17:20;;;;;;;13.77;4.22;;;19.10;97.90;;;;;;5045323;28;20435;-75
2023/05/31 12:19:49;;;;;;;14.35;5.82;;;19.30;98.30;;;;;;5033587;28;20047;-77
2023/05/31 12:22:15;;;;;;;11.10;3.95;;;19.10;97.70;;;;;;5033708;28;20508;-75
2023/05/31 12:24:49;;;;;;;6.50;3.53;;;19.10;98.40;;;;;;5033461;28;20045;-77
2023/05/31 12:27:15;;;;;;;6.30;3.85;;;19.20;98.50;;;;;;5034949;28;20060;-77
2023/05/31 12:29:41;;;;;;;6.50;3.80;;;19.00;98.10;;;;;;5033411;28;20083;-77
2023/05/31 12:32:07;;;;;;;10.50;4.68;;;19.10;98.50;;;;;;5043050;28;20033;-80
2023/05/31 12:34:35;;;;;;;9.02;4.40;;;19.10;98.60;;;;;;5043714;28;20083;-76
2023/05/31 12:37:05;;;;;;;10.02;4.72;;;19.10;98.70;;;;;;5054462;28;20084;-76
2023/05/31 12:39:31;;;;;;;9.77;5.43;;;19.20;98.50;;;;;;5054499;28;20032;-76
2023/05/31 12:41:58;;;;;;;9.55;4.40;;;18.80;98.70;;;;;;5053190;28;20056;-77
2023/05/31 12:44:25;;;;;;;9.68;4.05;;;19.10;98.80;;;;;;5054497;28;20072;-76